createdAt,value
2022-12-19T00:00:34.283Z,100605.81
2022-12-19T00:05:39.251Z,100598.64
2022-12-19T00:10:41.604Z,100592.21
2022-12-19T00:15:43.464Z,100584.85
2022-12-19T00:20:45.299Z,100598.77
2022-12-19T00:25:47.087Z,100597.73
2022-12-19T00:30:51.751Z,100601.83
2022-12-19T00:36:22.930Z,100601.96
2022-12-19T00:41:26.359Z,100601.27
2022-12-19T00:46:32.782Z,100591.99
2022-12-19T00:51:36.749Z,100593.11
2022-12-19T00:56:38.697Z,100588.64
2022-12-19T01:01:43.728Z,100578.00
2022-12-19T01:06:48.409Z,100565.46
2022-12-19T01:12:09.263Z,100560.41
2022-12-19T01:17:11.752Z,100559.27
2022-12-19T01:22:14.099Z,100550.28
2022-12-19T01:27:16.455Z,100552.06
2022-12-19T01:32:18.203Z,100537.97
2022-12-19T01:37:20.629Z,100529.52
2022-12-19T01:42:24.266Z,100533.13
2022-12-19T01:47:26.433Z,100530.09
2022-12-19T01:52:28.356Z,100528.59
2022-12-19T01:57:30.229Z,100519.34
2022-12-19T02:02:36.064Z,100505.13
2022-12-19T02:07:39.861Z,100502.86
2022-12-19T02:12:43.820Z,100511.67
2022-12-19T02:18:17.496Z,100519.30
2022-12-19T02:23:28.139Z,100513.96
2022-12-19T02:28:55.301Z,100497.25
2022-12-19T02:34:23.062Z,100487.64
2022-12-19T02:39:47.064Z,100487.98
2022-12-19T02:44:52.119Z,100488.52
2022-12-19T02:49:54.013Z,100484.13
2022-12-19T02:55:01.852Z,100480.21
2022-12-19T03:00:17.886Z,100474.11
2022-12-19T03:05:32.044Z,100468.19
2022-12-19T03:10:54.444Z,100458.67
2022-12-19T03:15:58.463Z,100461.09
2022-12-19T03:21:12.738Z,100465.52
2022-12-19T03:26:37.731Z,100454.01
2022-12-19T03:31:40.786Z,100455.26
2022-12-19T03:36:51.827Z,100455.59
2022-12-19T03:42:13.423Z,100451.34
2022-12-19T03:47:32.189Z,100449.54
2022-12-19T03:52:47.044Z,100451.23
2022-12-19T03:58:12.704Z,100452.29
2022-12-19T04:03:19.921Z,100451.16
2022-12-19T04:08:24.044Z,100434.11
2022-12-19T04:13:41.300Z,100424.11
2022-12-19T04:18:53.378Z,100415.82
2022-12-19T04:24:02.834Z,100415.33
2022-12-19T04:29:07.353Z,100415.13
2022-12-19T04:34:09.121Z,100413.35
2022-12-19T04:39:10.963Z,100402.31
2022-12-19T04:44:12.769Z,100405.09
2022-12-19T04:49:14.775Z,100406.45
2022-12-19T04:54:16.913Z,100404.08
2022-12-19T04:59:18.788Z,100411.38
2022-12-19T05:04:20.660Z,100403.70
2022-12-19T05:09:22.552Z,100406.00
2022-12-19T05:14:24.492Z,100405.27
2022-12-19T05:19:26.271Z,100398.37
2022-12-19T05:24:28.122Z,100411.35
2022-12-19T05:29:29.948Z,100409.52
2022-12-19T05:34:32.238Z,100409.38
2022-12-19T05:39:35.016Z,100410.31
2022-12-19T05:44:36.788Z,100409.27
2022-12-19T05:49:38.642Z,100408.88
2022-12-19T05:54:40.560Z,100402.02
2022-12-19T05:59:42.458Z,100400.48
2022-12-19T06:04:44.369Z,100396.30
2022-12-19T06:09:46.227Z,100387.15
2022-12-19T06:14:48.065Z,100386.02
2022-12-19T06:19:49.862Z,100392.30
2022-12-19T06:24:51.622Z,100391.95
2022-12-19T06:29:53.615Z,100399.63
2022-12-19T06:35:04.155Z,100393.58
2022-12-19T06:40:07.612Z,100380.92
2022-12-19T06:45:09.954Z,100373.11
2022-12-19T06:50:11.805Z,100379.16
2022-12-19T06:55:13.846Z,100382.77
2022-12-19T07:00:16.934Z,100373.85
2022-12-19T07:05:19.256Z,100373.92
2022-12-19T07:10:21.055Z,100381.89
2022-12-19T07:15:23.937Z,100389.10
2022-12-19T07:20:28.391Z,100381.88
2022-12-19T07:25:30.354Z,100385.40
2022-12-19T07:30:32.138Z,100386.77
2022-12-19T07:35:34.051Z,100386.83
2022-12-19T07:40:36.334Z,100373.30
2022-12-19T07:45:38.499Z,100385.77
2022-12-19T07:50:41.797Z,100383.72
2022-12-19T07:55:43.684Z,100372.20
2022-12-19T08:00:45.595Z,100368.63
2022-12-19T08:05:47.465Z,100374.77
2022-12-19T08:10:49.341Z,100389.65
2022-12-19T08:15:51.265Z,100384.38
2022-12-19T08:20:53.753Z,100369.98
2022-12-19T08:26:03.889Z,100364.70
2022-12-19T08:31:11.553Z,100365.39
2022-12-19T08:36:16.064Z,100359.61
2022-12-19T08:41:18.515Z,100355.04
2022-12-19T08:46:21.344Z,100361.40
2022-12-19T08:51:23.347Z,100356.70
2022-12-19T08:56:25.226Z,100349.91
2022-12-19T09:01:27.102Z,100336.86
2022-12-19T09:06:29.241Z,100344.88
2022-12-19T09:11:31.441Z,100344.67
2022-12-19T09:16:33.263Z,100335.38
2022-12-19T09:21:35.080Z,100332.89
2022-12-19T09:26:39.391Z,100334.39
2022-12-19T09:31:41.338Z,100321.81
2022-12-19T09:36:43.148Z,100319.42
2022-12-19T09:42:02.449Z,100313.14
2022-12-19T09:47:13.375Z,100310.47
2022-12-19T09:52:36.024Z,100297.25
2022-12-19T09:57:50.060Z,100281.33
2022-12-19T10:03:17.028Z,100283.46
2022-12-19T10:08:31.695Z,100282.77
2022-12-19T10:13:53.109Z,100277.15
2022-12-19T10:19:00.391Z,100263.58
2022-12-19T10:24:38.948Z,100252.79
2022-12-19T10:30:02.138Z,100239.40
2022-12-19T10:35:14.491Z,100229.64
2022-12-19T10:40:34.780Z,100227.39
2022-12-19T10:45:39.852Z,100209.78
2022-12-19T10:50:42.794Z,100202.86
2022-12-19T10:55:50.856Z,100195.11
2022-12-19T11:01:40.341Z,100185.73
2022-12-19T11:06:51.841Z,100181.67
2022-12-19T11:15:48.716Z,100176.05
2022-12-19T11:27:28.824Z,100178.30
2022-12-19T11:30:05.170Z,100174.05
2022-12-19T11:30:46.257Z,100165.77
2022-12-19T11:34:02.798Z,100156.20
2022-12-19T11:39:10.788Z,100140.89
2022-12-19T11:44:41.720Z,100129.45
2022-12-19T11:50:11.784Z,100123.84
2022-12-19T11:55:45.441Z,100121.98
2022-12-19T12:00:58.477Z,100116.88
2022-12-19T12:06:01.192Z,100098.34
2022-12-19T12:19:18.858Z,100093.81
2022-12-19T12:31:26.256Z,100094.96
2022-12-19T12:31:28.730Z,100095.53
2022-12-19T12:32:00.975Z,100109.25
2022-12-19T12:35:48.608Z,100096.52
2022-12-19T12:40:40.023Z,100084.19
2022-12-19T12:45:45.047Z,100073.08
2022-12-19T12:50:54.863Z,100062.66
2022-12-19T12:56:00.823Z,100055.12
2022-12-19T13:01:29.730Z,100056.58
2022-12-19T13:06:40.059Z,100055.98
2022-12-19T13:12:22.080Z,100042.31
2022-12-19T13:17:32.943Z,100034.52
2022-12-19T13:22:34.658Z,100031.69
2022-12-19T13:27:47.850Z,100027.48
2022-12-19T13:32:49.582Z,100024.65
2022-12-19T13:39:55.641Z,100031.05
2022-12-19T13:43:49.371Z,100029.55
2022-12-19T13:48:56.684Z,100023.50
2022-12-19T13:54:00.079Z,100032.55
2022-12-19T13:59:05.012Z,100027.60
2022-12-19T14:04:11.483Z,100026.48
2022-12-19T14:11:27.196Z,100031.08
2022-12-19T14:15:13.578Z,100025.02
2022-12-19T14:22:06.636Z,100009.33
2022-12-19T14:28:19.303Z,100007.93
2022-12-19T14:31:19.925Z,100003.80
2022-12-19T14:36:26.723Z,99994.98
2022-12-19T14:41:47.321Z,99984.55
2022-12-19T14:52:25.701Z,99989.92
2022-12-19T14:54:48.290Z,99988.05
2022-12-19T14:58:53.053Z,99977.73
2022-12-19T15:04:49.466Z,99972.30
2022-12-19T15:10:58.786Z,99954.65
2022-12-19T15:14:59.273Z,99954.25
2022-12-19T15:20:01.895Z,99956.93
2022-12-19T15:25:03.945Z,99954.79
2022-12-19T15:30:15.952Z,99956.84
2022-12-19T15:35:18.874Z,99949.34
2022-12-19T15:40:20.698Z,99938.73
2022-12-19T15:45:23.165Z,99936.23
2022-12-19T15:50:31.746Z,99925.73
2022-12-19T15:55:33.572Z,99929.83
2022-12-19T16:00:36.854Z,99919.02
2022-12-19T16:05:38.800Z,99914.91
2022-12-19T16:10:42.234Z,99912.95
2022-12-19T16:15:44.432Z,99917.04
2022-12-19T16:20:47.874Z,99913.25
2022-12-19T16:25:50.809Z,99907.21
2022-12-19T16:30:53.404Z,99895.67
2022-12-19T16:36:05.754Z,99895.11
2022-12-19T16:41:19.367Z,99892.19
2022-12-19T16:46:23.734Z,99889.33
2022-12-19T16:51:27.661Z,99868.65
2022-12-19T16:56:37.479Z,99868.02
2022-12-19T17:01:39.380Z,99866.65
2022-12-19T17:06:42.296Z,99854.59
2022-12-19T17:11:46.464Z,99867.11
2022-12-19T17:16:49.314Z,99861.64
2022-12-19T17:21:52.345Z,99868.91
2022-12-19T17:26:54.293Z,99871.27
2022-12-19T17:31:56.083Z,99870.31
2022-12-19T17:37:00.489Z,99859.83
2022-12-19T17:42:21.883Z,99858.46
2022-12-19T17:47:24.346Z,99849.63
2022-12-19T17:52:26.112Z,99847.29
2022-12-19T17:57:27.843Z,99850.88
2022-12-19T18:02:29.711Z,99844.17
2022-12-19T18:07:31.888Z,99859.04
2022-12-19T18:12:33.629Z,99852.49
2022-12-19T18:17:35.463Z,99854.04
2022-12-19T18:22:37.284Z,99846.35
2022-12-19T18:27:40.101Z,99830.34
2022-12-19T18:32:55.143Z,99831.87
2022-12-19T18:38:00.176Z,99815.71
2022-12-19T18:43:02.053Z,99812.89
2022-12-19T18:48:07.936Z,99815.54
2022-12-19T18:53:15.918Z,99817.70
2022-12-19T18:58:18.866Z,99818.98
2022-12-19T19:03:26.831Z,99814.65
2022-12-19T19:08:30.935Z,99803.10
2022-12-19T19:13:42.470Z,99785.45
2022-12-19T19:18:46.426Z,99797.61
2022-12-19T19:24:26.560Z,99786.92
2022-12-19T19:29:28.340Z,99788.64
2022-12-19T19:34:34.511Z,99787.83
2022-12-19T19:39:36.329Z,99785.34
2022-12-19T19:44:38.140Z,99790.24
2022-12-19T19:49:40.064Z,99790.84
2022-12-19T19:54:41.954Z,99788.08
2022-12-19T19:59:44.755Z,99787.48
2022-12-19T20:04:46.650Z,99774.04
2022-12-19T20:09:48.373Z,99770.98
2022-12-19T20:14:50.293Z,99767.46
2022-12-19T20:19:52.210Z,99772.71
2022-12-19T20:24:54.102Z,99773.73
2022-12-19T20:29:56.800Z,99775.60
2022-12-19T20:34:58.888Z,99773.38
2022-12-19T20:40:02.248Z,99769.42
2022-12-19T20:45:04.361Z,99755.30
2022-12-19T20:50:07.591Z,99751.45
2022-12-19T20:55:10.892Z,99738.48
2022-12-19T21:00:14.796Z,99734.39
2022-12-19T21:05:17.406Z,99738.10
2022-12-19T21:10:20.554Z,99728.56
2022-12-19T21:15:22.297Z,99733.38
2022-12-19T21:20:28.215Z,99726.96
2022-12-19T21:25:34.292Z,99721.77
2022-12-19T21:30:36.163Z,99711.55
2022-12-19T21:35:38.081Z,99697.80
2022-12-19T21:40:39.978Z,99699.57
2022-12-19T21:45:41.808Z,99697.83
2022-12-19T21:50:43.622Z,99692.60
2022-12-19T21:55:45.513Z,99695.16
2022-12-19T22:00:47.311Z,99712.52
2022-12-19T22:05:49.222Z,99709.13
2022-12-19T22:10:51.450Z,99703.91
2022-12-19T22:15:59.203Z,99692.05
2022-12-19T22:21:01.245Z,99688.40
2022-12-19T22:26:06.027Z,99681.06
2022-12-19T22:31:24.454Z,99672.09
2022-12-19T22:36:28.977Z,99664.74
2022-12-19T22:41:33.101Z,99668.30
2022-12-19T22:46:37.159Z,99663.80
2022-12-19T22:51:39.850Z,99664.42
2022-12-19T22:56:42.269Z,99649.55
2022-12-19T23:01:44.399Z,99648.09
2022-12-19T23:06:46.499Z,99647.11
2022-12-19T23:11:49.469Z,99643.23
2022-12-19T23:16:51.445Z,99639.98
2022-12-19T23:21:53.519Z,99640.10
2022-12-19T23:26:55.439Z,99640.96
2022-12-19T23:31:57.343Z,99645.27
2022-12-19T23:37:10.639Z,99642.70
2022-12-19T23:42:12.991Z,99637.77
2022-12-19T23:47:15.149Z,99635.58
2022-12-19T23:52:16.871Z,99638.02
2022-12-19T23:57:18.625Z,99632.15
